sensor_id;sensor_type;location;lat;lon;timestamp;pressure;altitude;pressure_sealevel;temperature;humidity
43480;BME280;29067;35.492;-97.520;2023-05-20T00:02:15;97610.24;;;13.61;80.20
43480;BME280;29067;35.492;-97.520;2023-05-20T00:04:44;97613.23;;;12.67;83.76
43480;BME280;29067;35.492;-97.520;2023-05-20T00:07:12;97611.75;;;13.68;80.53
43480;BME280;29067;35.492;-97.520;2023-05-20T00:09:41;97612.56;;;13.87;79.51
43480;BME280;29067;35.492;-97.520;2023-05-20T00:12:10;97614.70;;;13.17;79.89
43480;BME280;29067;35.492;-97.520;2023-05-20T00:14:44;97623.59;;;12.90;84.22
43480;BME280;29067;35.492;-97.520;2023-05-20T00:17:12;97624.66;;;13.57;81.05
43480;BME280;29067;35.492;-97.520;2023-05-20T00:19:40;97634.45;;;12.49;82.27
43480;BME280;29067;35.492;-97.520;2023-05-20T00:22:13;97637.77;;;12.73;83.19
43480;BME280;29067;35.492;-97.520;2023-05-20T00:24:41;97646.47;;;12.41;84.40
43480;BME280;29067;35.492;-97.520;2023-05-20T00:27:13;97651.92;;;13.03;84.97
43480;BME280;29067;35.492;-97.520;2023-05-20T00:29:41;97652.89;;;12.86;84.35
43480;BME280;29067;35.492;-97.520;2023-05-20T00:32:14;97656.27;;;13.61;79.87
43480;BME280;29067;35.492;-97.520;2023-05-20T00:34:43;97666.48;;;12.87;83.29
43480;BME280;29067;35.492;-97.520;2023-05-20T00:37:10;97671.23;;;13.01;81.58
43480;BME280;29067;35.492;-97.520;2023-05-20T00:39:39;97669.93;;;12.90;80.29
43480;BME280;29067;35.492;-97.520;2023-05-20T00:42:07;97676.24;;;11.85;87.26
43480;BME280;29067;35.492;-97.520;2023-05-20T00:44:35;97677.93;;;13.17;85.30
43480;BME280;29067;35.492;-97.520;2023-05-20T00:47:03;97685.70;;;11.61;87.95
43480;BME280;29067;35.492;-97.520;2023-05-20T00:49:36;97687.01;;;13.04;83.06
43480;BME280;29067;35.492;-97.520;2023-05-20T00:52:04;97681.78;;;12.43;83.64
43480;BME280;29067;35.492;-97.520;2023-05-20T00:54:33;97682.34;;;13.05;82.58
43480;BME280;29067;35.492;-97.520;2023-05-20T00:57:04;97676.28;;;13.37;79.87
43480;BME280;29067;35.492;-97.520;2023-05-20T00:59:35;97679.15;;;12.73;83.67
43480;BME280;29067;35.492;-97.520;2023-05-20T01:02:04;97682.30;;;12.39;85.36
43480;BME280;29067;35.492;-97.520;2023-05-20T01:04:33;97685.32;;;12.97;84.33
43480;BME280;29067;35.492;-97.520;2023-05-20T01:07:03;97684.99;;;12.00;85.88
43480;BME280;29067;35.492;-97.520;2023-05-20T01:09:33;97693.34;;;12.60;82.17
43480;BME280;29067;35.492;-97.520;2023-05-20T01:12:04;97695.34;;;12.14;84.01
43480;BME280;29067;35.492;-97.520;2023-05-20T01:14:36;97701.57;;;11.41;86.96
43480;BME280;29067;35.492;-97.520;2023-05-20T01:17:09;97703.68;;;12.52;85.25
43480;BME280;29067;35.492;-97.520;2023-05-20T01:19:41;97702.00;;;13.31;80.56
43480;BME280;29067;35.492;-97.520;2023-05-20T01:22:10;97707.64;;;12.98;82.37
43480;BME280;29067;35.492;-97.520;2023-05-20T01:24:41;97723.78;;;11.93;85.20
43480;BME280;29067;35.492;-97.520;2023-05-20T01:27:10;97718.84;;;12.05;80.20
43480;BME280;29067;35.492;-97.520;2023-05-20T01:29:39;97721.25;;;12.05;79.81
43480;BME280;29067;35.492;-97.520;2023-05-20T01:32:10;97729.47;;;12.91;77.83
43480;BME280;29067;35.492;-97.520;2023-05-20T01:34:41;97741.48;;;12.98;78.02
43480;BME280;29067;35.492;-97.520;2023-05-20T01:37:11;97745.22;;;12.54;74.50
43480;BME280;29067;35.492;-97.520;2023-05-20T01:39:41;97756.32;;;10.19;76.41
43480;BME280;29067;35.492;-97.520;2023-05-20T01:42:10;97752.69;;;11.18;74.22
43480;BME280;29067;35.492;-97.520;2023-05-20T01:44:39;97758.32;;;12.21;74.07
43480;BME280;29067;35.492;-97.520;2023-05-20T01:47:07;97763.67;;;12.48;73.59
43480;BME280;29067;35.492;-97.520;2023-05-20T01:49:34;97762.07;;;12.85;69.84
43480;BME280;29067;35.492;-97.520;2023-05-20T01:52:03;97765.45;;;13.03;69.88
43480;BME280;29067;35.492;-97.520;2023-05-20T01:54:31;97772.48;;;13.01;71.71
43480;BME280;29067;35.492;-97.520;2023-05-20T01:56:59;97776.52;;;12.49;72.82
43480;BME280;29067;35.492;-97.520;2023-05-20T01:59:26;97780.84;;;13.37;70.04
43480;BME280;29067;35.492;-97.520;2023-05-20T02:01:55;97781.74;;;12.44;72.83
43480;BME280;29067;35.492;-97.520;2023-05-20T02:04:23;97787.90;;;12.01;74.57
43480;BME280;29067;35.492;-97.520;2023-05-20T02:06:51;97784.61;;;14.17;71.06
43480;BME280;29067;35.492;-97.520;2023-05-20T02:09:19;97790.34;;;13.48;73.00
43480;BME280;29067;35.492;-97.520;2023-05-20T02:11:47;97801.58;;;12.18;77.60
43480;BME280;29067;35.492;-97.520;2023-05-20T02:14:15;97812.60;;;12.39;78.15
43480;BME280;29067;35.492;-97.520;2023-05-20T02:16:43;97815.57;;;12.97;75.52
43480;BME280;29067;35.492;-97.520;2023-05-20T02:19:13;97820.61;;;12.35;74.74
43480;BME280;29067;35.492;-97.520;2023-05-20T02:21:46;97830.38;;;12.50;76.13
43480;BME280;29067;35.492;-97.520;2023-05-20T02:24:20;97826.43;;;13.68;73.11
43480;BME280;29067;35.492;-97.520;2023-05-20T02:26:48;97828.95;;;13.26;71.94
43480;BME280;29067;35.492;-97.520;2023-05-20T02:29:17;97834.93;;;13.75;71.32
43480;BME280;29067;35.492;-97.520;2023-05-20T02:31:45;97845.26;;;13.18;72.34
43480;BME280;29067;35.492;-97.520;2023-05-20T02:34:13;97861.65;;;13.03;71.42
43480;BME280;29067;35.492;-97.520;2023-05-20T02:36:46;97871.96;;;12.27;72.02
43480;BME280;29067;35.492;-97.520;2023-05-20T02:39:15;97870.97;;;12.45;71.31
43480;BME280;29067;35.492;-97.520;2023-05-20T02:41:43;97867.66;;;12.18;73.74
43480;BME280;29067;35.492;-97.520;2023-05-20T02:44:11;97867.05;;;13.58;69.90
43480;BME280;29067;35.492;-97.520;2023-05-20T02:46:40;97876.00;;;13.04;68.95
43480;BME280;29067;35.492;-97.520;2023-05-20T02:49:07;97876.74;;;12.14;70.50
43480;BME280;29067;35.492;-97.520;2023-05-20T02:51:41;97879.17;;;12.84;70.13
43480;BME280;29067;35.492;-97.520;2023-05-20T02:54:09;97886.98;;;12.24;70.41
43480;BME280;29067;35.492;-97.520;2023-05-20T02:56:37;97898.10;;;11.41;72.32
43480;BME280;29067;35.492;-97.520;2023-05-20T02:59:06;97904.84;;;12.60;69.91
43480;BME280;29067;35.492;-97.520;2023-05-20T03:01:34;97909.88;;;11.99;71.06
43480;BME280;29067;35.492;-97.520;2023-05-20T03:04:03;97906.16;;;12.62;70.52
43480;BME280;29067;35.492;-97.520;2023-05-20T03:06:31;97904.27;;;12.77;71.61
43480;BME280;29067;35.492;-97.520;2023-05-20T03:08:59;97904.60;;;12.27;72.62
43480;BME280;29067;35.492;-97.520;2023-05-20T03:11:27;97914.30;;;11.70;72.75
43480;BME280;29067;35.492;-97.520;2023-05-20T03:13:55;97916.27;;;12.11;72.78
43480;BME280;29067;35.492;-97.520;2023-05-20T03:16:23;97919.96;;;12.42;70.34
43480;BME280;29067;35.492;-97.520;2023-05-20T03:18:51;97922.21;;;11.43;73.72
43480;BME280;29067;35.492;-97.520;2023-05-20T03:21:19;97927.06;;;12.25;72.15
43480;BME280;29067;35.492;-97.520;2023-05-20T03:23:48;97928.35;;;12.37;73.02
43480;BME280;29067;35.492;-97.520;2023-05-20T03:26:16;97926.84;;;11.37;74.40
43480;BME280;29067;35.492;-97.520;2023-05-20T03:28:45;97918.03;;;11.26;75.67
43480;BME280;29067;35.492;-97.520;2023-05-20T03:31:14;97908.95;;;12.40;72.37
43480;BME280;29067;35.492;-97.520;2023-05-20T03:33:42;97905.99;;;12.35;72.90
43480;BME280;29067;35.492;-97.520;2023-05-20T03:36:09;97895.74;;;11.23;76.36
43480;BME280;29067;35.492;-97.520;2023-05-20T03:38:37;97894.21;;;11.38;75.42
43480;BME280;29067;35.492;-97.520;2023-05-20T03:41:06;97902.43;;;11.54;76.12
43480;BME280;29067;35.492;-97.520;2023-05-20T03:43:34;97906.32;;;11.59;74.12
43480;BME280;29067;35.492;-97.520;2023-05-20T03:46:06;97910.11;;;10.83;75.34
43480;BME280;29067;35.492;-97.520;2023-05-20T03:48:40;97908.62;;;10.73;76.73
43480;BME280;29067;35.492;-97.520;2023-05-20T03:51:09;97909.53;;;10.85;76.11
43480;BME280;29067;35.492;-97.520;2023-05-20T03:53:37;97911.38;;;11.42;75.65
43480;BME280;29067;35.492;-97.520;2023-05-20T03:56:06;97923.99;;;11.72;74.22
43480;BME280;29067;35.492;-97.520;2023-05-20T03:58:34;97936.84;;;11.64;72.84
43480;BME280;29067;35.492;-97.520;2023-05-20T04:01:07;97942.66;;;12.32;72.18
43480;BME280;29067;35.492;-97.520;2023-05-20T04:03:50;97942.87;;;11.09;72.70
43480;BME280;29067;35.492;-97.520;2023-05-20T04:06:18;97949.90;;;11.98;71.24
43480;BME280;29067;35.492;-97.520;2023-05-20T04:08:51;97959.60;;;11.77;71.43
43480;BME280;29067;35.492;-97.520;2023-05-20T04:11:19;97964.51;;;11.85;73.92
43480;BME280;29067;35.492;-97.520;2023-05-20T04:13:47;97968.69;;;11.68;75.14
43480;BME280;29067;35.492;-97.520;2023-05-20T04:16:15;97974.35;;;12.51;72.06
43480;BME280;29067;35.492;-97.520;2023-05-20T04:18:43;97982.71;;;11.49;73.32
43480;BME280;29067;35.492;-97.520;2023-05-20T04:21:12;97981.59;;;12.03;72.54
43480;BME280;29067;35.492;-97.520;2023-05-20T04:23:50;97968.70;;;11.82;73.16
43480;BME280;29067;35.492;-97.520;2023-05-20T04:26:18;97954.41;;;11.68;73.18
43480;BME280;29067;35.492;-97.520;2023-05-20T04:28:46;97948.09;;;12.01;73.13
43480;BME280;29067;35.492;-97.520;2023-05-20T04:31:15;97944.07;;;11.53;73.79
43480;BME280;29067;35.492;-97.520;2023-05-20T04:33:48;97949.15;;;11.39;73.33
43480;BME280;29067;35.492;-97.520;2023-05-20T04:36:22;97948.73;;;11.53;72.21
43480;BME280;29067;35.492;-97.520;2023-05-20T04:38:50;97943.91;;;11.94;72.44
43480;BME280;29067;35.492;-97.520;2023-05-20T04:41:22;97943.37;;;11.28;76.36
43480;BME280;29067;35.492;-97.520;2023-05-20T04:43:52;97943.28;;;11.39;74.64
43480;BME280;29067;35.492;-97.520;2023-05-20T04:46:25;97943.71;;;11.22;74.61
43480;BME280;29067;35.492;-97.520;2023-05-20T04:48:58;97938.14;;;10.99;75.07
43480;BME280;29067;35.492;-97.520;2023-05-20T04:51:27;97933.08;;;10.31;76.76
43480;BME280;29067;35.492;-97.520;2023-05-20T04:53:56;97931.60;;;11.96;73.05
43480;BME280;29067;35.492;-97.520;2023-05-20T04:56:34;97928.75;;;10.76;72.99
43480;BME280;29067;35.492;-97.520;2023-05-20T04:59:02;97929.03;;;11.22;72.23
43480;BME280;29067;35.492;-97.520;2023-05-20T05:01:36;97931.74;;;11.18;70.93
43480;BME280;29067;35.492;-97.520;2023-05-20T05:04:09;97928.80;;;11.45;70.78
43480;BME280;29067;35.492;-97.520;2023-05-20T05:06:38;97922.09;;;11.52;69.71
43480;BME280;29067;35.492;-97.520;2023-05-20T05:09:05;97920.57;;;10.90;69.73
43480;BME280;29067;35.492;-97.520;2023-05-20T05:11:33;97929.43;;;11.44;68.63
43480;BME280;29067;35.492;-97.520;2023-05-20T05:14:01;97932.46;;;11.38;70.48
43480;BME280;29067;35.492;-97.520;2023-05-20T05:16:34;97926.84;;;10.92;69.96
43480;BME280;29067;35.492;-97.520;2023-05-20T05:19:07;97927.57;;;10.55;71.91
43480;BME280;29067;35.492;-97.520;2023-05-20T05:21:46;97930.57;;;11.63;70.89
43480;BME280;29067;35.492;-97.520;2023-05-20T05:24:15;97938.30;;;12.06;68.68
43480;BME280;29067;35.492;-97.520;2023-05-20T05:26:43;97952.17;;;10.18;73.50
43480;BME280;29067;35.492;-97.520;2023-05-20T05:29:12;97955.59;;;9.91;73.60
43480;BME280;29067;35.492;-97.520;2023-05-20T05:31:41;97955.59;;;9.97;72.28
43480;BME280;29067;35.492;-97.520;2023-05-20T05:34:10;97960.12;;;10.91;74.14
43480;BME280;29067;35.492;-97.520;2023-05-20T05:36:39;97954.54;;;11.22;70.92
43480;BME280;29067;35.492;-97.520;2023-05-20T05:39:07;97960.90;;;11.36;70.48
43480;BME280;29067;35.492;-97.520;2023-05-20T05:41:35;97962.89;;;10.96;69.65
43480;BME280;29067;35.492;-97.520;2023-05-20T05:44:09;97961.75;;;12.79;66.12
43480;BME280;29067;35.492;-97.520;2023-05-20T05:46:37;97961.52;;;12.68;68.67
43480;BME280;29067;35.492;-97.520;2023-05-20T05:49:09;97958.12;;;11.74;68.73
43480;BME280;29067;35.492;-97.520;2023-05-20T05:51:38;97959.21;;;11.29;67.64
43480;BME280;29067;35.492;-97.520;2023-05-20T05:54:06;97969.67;;;10.75;70.84
43480;BME280;29067;35.492;-97.520;2023-05-20T05:56:34;97978.46;;;11.96;67.50
43480;BME280;29067;35.492;-97.520;2023-05-20T05:59:03;97980.60;;;11.72;68.27
43480;BME280;29067;35.492;-97.520;2023-05-20T06:01:31;97994.48;;;11.04;68.34
43480;BME280;29067;35.492;-97.520;2023-05-20T06:03:59;97995.79;;;12.39;66.90
43480;BME280;29067;35.492;-97.520;2023-05-20T06:06:27;97995.29;;;12.06;64.27
43480;BME280;29067;35.492;-97.520;2023-05-20T06:08:55;97997.79;;;11.07;68.44
43480;BME280;29067;35.492;-97.520;2023-05-20T06:11:23;97990.46;;;12.42;66.82
43480;BME280;29067;35.492;-97.520;2023-05-20T06:13:57;97986.76;;;12.44;66.06
43480;BME280;29067;35.492;-97.520;2023-05-20T06:16:25;97980.43;;;12.32;66.65
43480;BME280;29067;35.492;-97.520;2023-05-20T06:18:53;97971.45;;;11.14;67.39
43480;BME280;29067;35.492;-97.520;2023-05-20T06:21:26;97969.44;;;10.73;68.73
43480;BME280;29067;35.492;-97.520;2023-05-20T06:23:56;97961.37;;;11.18;66.78
43480;BME280;29067;35.492;-97.520;2023-05-20T06:26:24;97956.00;;;10.55;67.79
43480;BME280;29067;35.492;-97.520;2023-05-20T06:28:52;97944.14;;;10.77;66.63
43480;BME280;29067;35.492;-97.520;2023-05-20T06:31:20;97944.58;;;10.55;67.69
43480;BME280;29067;35.492;-97.520;2023-05-20T06:33:47;97948.83;;;11.15;68.43
43480;BME280;29067;35.492;-97.520;2023-05-20T06:36:16;97952.64;;;10.59;69.90
43480;BME280;29067;35.492;-97.520;2023-05-20T06:38:45;97957.13;;;10.34;69.45
43480;BME280;29067;35.492;-97.520;2023-05-20T06:41:13;97964.25;;;10.89;68.26
43480;BME280;29067;35.492;-97.520;2023-05-20T06:43:40;97974.05;;;10.72;67.52
43480;BME280;29067;35.492;-97.520;2023-05-20T06:46:08;97985.95;;;11.44;67.58
43480;BME280;29067;35.492;-97.520;2023-05-20T06:48:36;97998.83;;;10.66;69.59
43480;BME280;29067;35.492;-97.520;2023-05-20T06:51:11;98009.43;;;11.33;68.09
43480;BME280;29067;35.492;-97.520;2023-05-20T06:53:39;98014.35;;;10.62;67.51
43480;BME280;29067;35.492;-97.520;2023-05-20T06:56:07;98020.23;;;11.73;64.91
43480;BME280;29067;35.492;-97.520;2023-05-20T06:58:35;98025.87;;;11.10;66.53
43480;BME280;29067;35.492;-97.520;2023-05-20T07:01:13;98040.32;;;11.00;66.49
43480;BME280;29067;35.492;-97.520;2023-05-20T07:03:40;98052.71;;;10.60;67.77
43480;BME280;29067;35.492;-97.520;2023-05-20T07:06:09;98056.49;;;11.21;66.49
43480;BME280;29067;35.492;-97.520;2023-05-20T07:08:42;98049.45;;;12.90;62.40
43480;BME280;29067;35.492;-97.520;2023-05-20T07:11:09;98042.48;;;11.19;64.49
43480;BME280;29067;35.492;-97.520;2023-05-20T07:13:38;98042.76;;;11.71;65.02
43480;BME280;29067;35.492;-97.520;2023-05-20T07:16:08;98039.86;;;11.87;63.06
43480;BME280;29067;35.492;-97.520;2023-05-20T07:18:36;98044.45;;;11.98;61.28
43480;BME280;29067;35.492;-97.520;2023-05-20T07:21:05;98049.59;;;11.78;64.18
43480;BME280;29067;35.492;-97.520;2023-05-20T07:23:33;98061.80;;;11.06;64.94
43480;BME280;29067;35.492;-97.520;2023-05-20T07:26:01;98065.32;;;11.81;63.66
43480;BME280;29067;35.492;-97.520;2023-05-20T07:28:30;98072.90;;;11.11;63.45
43480;BME280;29067;35.492;-97.520;2023-05-20T07:30:58;98072.72;;;11.18;64.42
43480;BME280;29067;35.492;-97.520;2023-05-20T07:33:27;98076.51;;;10.66;64.93
43480;BME280;29067;35.492;-97.520;2023-05-20T07:35:55;98069.63;;;11.21;65.10
43480;BME280;29067;35.492;-97.520;2023-05-20T07:38:23;98067.62;;;11.86;64.94
43480;BME280;29067;35.492;-97.520;2023-05-20T07:40:51;98061.03;;;13.00;62.99
43480;BME280;29067;35.492;-97.520;2023-05-20T07:43:25;98059.74;;;12.13;64.06
43480;BME280;29067;35.492;-97.520;2023-05-20T07:45:52;98055.41;;;11.81;64.10
43480;BME280;29067;35.492;-97.520;2023-05-20T07:48:20;98056.73;;;12.57;62.44
43480;BME280;29067;35.492;-97.520;2023-05-20T07:50:50;98054.87;;;12.91;61.53
43480;BME280;29067;35.492;-97.520;2023-05-20T07:53:23;98054.99;;;13.17;60.71
43480;BME280;29067;35.492;-97.520;2023-05-20T07:55:57;98046.81;;;11.64;63.08
43480;BME280;29067;35.492;-97.520;2023-05-20T07:58:26;98039.72;;;11.67;62.85
43480;BME280;29067;35.492;-97.520;2023-05-20T08:00:59;98037.74;;;12.89;61.47
43480;BME280;29067;35.492;-97.520;2023-05-20T08:03:27;98033.00;;;13.12;62.11
43480;BME280;29067;35.492;-97.520;2023-05-20T08:05:55;98028.20;;;11.64;62.55
43480;BME280;29067;35.492;-97.520;2023-05-20T08:08:28;98028.45;;;11.51;63.84
43480;BME280;29067;35.492;-97.520;2023-05-20T08:11:02;98028.66;;;11.17;65.42
43480;BME280;29067;35.492;-97.520;2023-05-20T08:13:30;98023.69;;;11.02;64.41
43480;BME280;29067;35.492;-97.520;2023-05-20T08:15:58;98018.89;;;11.65;64.78
43480;BME280;29067;35.492;-97.520;2023-05-20T08:18:26;98016.00;;;10.47;65.82
43480;BME280;29067;35.492;-97.520;2023-05-20T08:20:56;98014.68;;;12.32;63.56
43480;BME280;29067;35.492;-97.520;2023-05-20T08:23:25;98019.39;;;11.69;64.38
43480;BME280;29067;35.492;-97.520;2023-05-20T08:25:53;98024.20;;;11.57;63.84
43480;BME280;29067;35.492;-97.520;2023-05-20T08:28:22;98027.81;;;11.45;63.67
43480;BME280;29067;35.492;-97.520;2023-05-20T08:30:51;98029.14;;;11.82;64.21
43480;BME280;29067;35.492;-97.520;2023-05-20T08:33:24;98038.94;;;11.04;66.69
43480;BME280;29067;35.492;-97.520;2023-05-20T08:35:52;98044.68;;;10.61;68.33
43480;BME280;29067;35.492;-97.520;2023-05-20T08:38:20;98046.78;;;11.15;67.66
43480;BME280;29067;35.492;-97.520;2023-05-20T08:40:53;98052.88;;;10.68;70.10
43480;BME280;29067;35.492;-97.520;2023-05-20T08:43:26;98052.09;;;11.36;66.74
43480;BME280;29067;35.492;-97.520;2023-05-20T08:45:54;98059.64;;;10.15;70.30
43480;BME280;29067;35.492;-97.520;2023-05-20T08:48:27;98060.22;;;10.13;69.82
43480;BME280;29067;35.492;-97.520;2023-05-20T08:51:04;98055.84;;;10.37;69.20
43480;BME280;29067;35.492;-97.520;2023-05-20T08:53:44;98051.90;;;10.27;71.57
43480;BME280;29067;35.492;-97.520;2023-05-20T08:56:15;98050.22;;;11.32;68.15
43480;BME280;29067;35.492;-97.520;2023-05-20T08:58:50;98045.50;;;11.81;66.34
43480;BME280;29067;35.492;-97.520;2023-05-20T09:01:25;98030.43;;;11.06;66.49
43480;BME280;29067;35.492;-97.520;2023-05-20T09:03:52;98017.90;;;11.01;66.03
43480;BME280;29067;35.492;-97.520;2023-05-20T09:06:21;98014.99;;;11.70;65.01
43480;BME280;29067;35.492;-97.520;2023-05-20T09:08:49;98010.07;;;11.78;64.10
43480;BME280;29067;35.492;-97.520;2023-05-20T09:11:17;98013.67;;;11.37;62.99
43480;BME280;29067;35.492;-97.520;2023-05-20T09:13:46;98012.71;;;9.96;64.66
43480;BME280;29067;35.492;-97.520;2023-05-20T09:16:14;98012.42;;;11.72;63.05
43480;BME280;29067;35.492;-97.520;2023-05-20T09:18:42;98011.39;;;11.68;63.89
43480;BME280;29067;35.492;-97.520;2023-05-20T09:21:11;98009.43;;;11.90;64.03
43480;BME280;29067;35.492;-97.520;2023-05-20T09:23:39;98006.49;;;10.77;64.51
43480;BME280;29067;35.492;-97.520;2023-05-20T09:26:12;98010.65;;;11.12;64.58
43480;BME280;29067;35.492;-97.520;2023-05-20T09:28:41;98012.69;;;10.82;65.26
43480;BME280;29067;35.492;-97.520;2023-05-20T09:31:13;98004.72;;;11.39;63.49
43480;BME280;29067;35.492;-97.520;2023-05-20T09:33:42;98000.69;;;11.91;62.49
43480;BME280;29067;35.492;-97.520;2023-05-20T09:36:10;98000.72;;;11.68;62.49
43480;BME280;29067;35.492;-97.520;2023-05-20T09:38:40;98005.49;;;11.20;62.29
43480;BME280;29067;35.492;-97.520;2023-05-20T09:41:11;97997.09;;;10.24;64.23
43480;BME280;29067;35.492;-97.520;2023-05-20T09:43:40;97986.44;;;11.00;64.30
43480;BME280;29067;35.492;-97.520;2023-05-20T09:46:09;97986.29;;;10.10;66.19
43480;BME280;29067;35.492;-97.520;2023-05-20T09:48:39;97981.11;;;10.69;63.45
43480;BME280;29067;35.492;-97.520;2023-05-20T09:51:13;97974.26;;;10.27;65.32
43480;BME280;29067;35.492;-97.520;2023-05-20T09:53:42;97966.93;;;10.58;63.43
43480;BME280;29067;35.492;-97.520;2023-05-20T09:56:16;97964.54;;;10.87;63.89
43480;BME280;29067;35.492;-97.520;2023-05-20T09:58:52;97967.29;;;11.08;63.54
43480;BME280;29067;35.492;-97.520;2023-05-20T10:01:21;97969.33;;;10.57;65.52
43480;BME280;29067;35.492;-97.520;2023-05-20T10:03:49;97971.57;;;11.42;62.67
43480;BME280;29067;35.492;-97.520;2023-05-20T10:06:32;97968.37;;;11.69;61.11
43480;BME280;29067;35.492;-97.520;2023-05-20T10:09:22;97969.36;;;10.35;63.01
43480;BME280;29067;35.492;-97.520;2023-05-20T10:11:59;97971.61;;;11.53;61.19
43480;BME280;29067;35.492;-97.520;2023-05-20T10:14:45;97975.88;;;11.01;61.05
43480;BME280;29067;35.492;-97.520;2023-05-20T10:17:23;97985.69;;;9.92;64.30
43480;BME280;29067;35.492;-97.520;2023-05-20T10:19:58;97985.74;;;10.12;63.45
43480;BME280;29067;35.492;-97.520;2023-05-20T10:22:30;97983.42;;;10.98;62.11
43480;BME280;29067;35.492;-97.520;2023-05-20T10:25:03;97979.98;;;10.53;63.01
43480;BME280;29067;35.492;-97.520;2023-05-20T10:27:43;97972.16;;;11.29;61.78
43480;BME280;29067;35.492;-97.520;2023-05-20T10:30:23;97969.50;;;11.00;63.21
43480;BME280;29067;35.492;-97.520;2023-05-20T10:33:03;97968.22;;;10.61;64.32
43480;BME280;29067;35.492;-97.520;2023-05-20T10:35:32;97969.42;;;10.23;64.87
43480;BME280;29067;35.492;-97.520;2023-05-20T10:38:09;97960.63;;;10.81;63.67
43480;BME280;29067;35.492;-97.520;2023-05-20T10:40:37;97960.43;;;9.87;65.34
43480;BME280;29067;35.492;-97.520;2023-05-20T10:43:13;97959.37;;;9.81;64.52
43480;BME280;29067;35.492;-97.520;2023-05-20T10:45:50;97963.01;;;10.25;65.07
43480;BME280;29067;35.492;-97.520;2023-05-20T10:48:24;97965.16;;;9.89;65.25
43480;BME280;29067;35.492;-97.520;2023-05-20T10:50:54;97956.59;;;10.58;64.65
43480;BME280;29067;35.492;-97.520;2023-05-20T10:53:29;97959.10;;;10.61;66.06
43480;BME280;29067;35.492;-97.520;2023-05-20T10:56:25;97960.53;;;10.13;66.09
43480;BME280;29067;35.492;-97.520;2023-05-20T10:58:53;97953.20;;;10.40;66.09
43480;BME280;29067;35.492;-97.520;2023-05-20T11:03:03;97944.90;;;8.71;68.16
43480;BME280;29067;35.492;-97.520;2023-05-20T11:05:33;97935.19;;;10.25;64.20
43480;BME280;29067;35.492;-97.520;2023-05-20T11:08:02;97931.93;;;9.86;64.45
43480;BME280;29067;35.492;-97.520;2023-05-20T11:10:30;97925.39;;;10.17;65.17
43480;BME280;29067;35.492;-97.520;2023-05-20T11:13:01;97927.28;;;9.64;65.25
43480;BME280;29067;35.492;-97.520;2023-05-20T11:15:31;97929.01;;;9.87;65.42
43480;BME280;29067;35.492;-97.520;2023-05-20T11:18:01;97932.17;;;10.33;63.39
43480;BME280;29067;35.492;-97.520;2023-05-20T11:20:29;97942.75;;;9.18;63.96
43480;BME280;29067;35.492;-97.520;2023-05-20T11:22:57;97939.79;;;11.31;61.80
43480;BME280;29067;35.492;-97.520;2023-05-20T11:25:26;97945.30;;;9.95;64.28
43480;BME280;29067;35.492;-97.520;2023-05-20T11:27:54;97938.98;;;9.69;64.04
43480;BME280;29067;35.492;-97.520;2023-05-20T11:30:22;97931.46;;;11.00;63.41
43480;BME280;29067;35.492;-97.520;2023-05-20T11:32:59;97924.30;;;11.05;62.45
43480;BME280;29067;35.492;-97.520;2023-05-20T11:35:29;97921.48;;;10.02;62.88
43480;BME280;29067;35.492;-97.520;2023-05-20T11:38:00;97924.95;;;10.68;63.27
43480;BME280;29067;35.492;-97.520;2023-05-20T11:40:31;97930.88;;;10.43;63.57
43480;BME280;29067;35.492;-97.520;2023-05-20T11:43:00;97929.50;;;11.25;61.50
43480;BME280;29067;35.492;-97.520;2023-05-20T11:45:39;97931.33;;;11.22;61.03
43480;BME280;29067;35.492;-97.520;2023-05-20T11:48:11;97932.66;;;10.51;62.34
43480;BME280;29067;35.492;-97.520;2023-05-20T11:50:39;97936.56;;;9.88;63.63
43480;BME280;29067;35.492;-97.520;2023-05-20T11:53:09;97936.46;;;10.22;64.06
43480;BME280;29067;35.492;-97.520;2023-05-20T11:55:45;97935.48;;;10.28;64.17
43480;BME280;29067;35.492;-97.520;2023-05-20T11:58:17;97935.15;;;10.67;63.89
43480;BME280;29067;35.492;-97.520;2023-05-20T12:00:47;97944.07;;;9.34;64.13
43480;BME280;29067;35.492;-97.520;2023-05-20T12:03:16;97956.53;;;9.11;65.14
43480;BME280;29067;35.492;-97.520;2023-05-20T12:05:44;97970.99;;;9.69;65.18
43480;BME280;29067;35.492;-97.520;2023-05-20T12:08:12;97982.45;;;10.91;62.31
43480;BME280;29067;35.492;-97.520;2023-05-20T12:10:40;98012.00;;;10.94;61.98
43480;BME280;29067;35.492;-97.520;2023-05-20T12:13:08;98030.19;;;9.92;63.11
43480;BME280;29067;35.492;-97.520;2023-05-20T12:15:37;98043.93;;;10.17;64.34
43480;BME280;29067;35.492;-97.520;2023-05-20T12:18:05;98051.81;;;10.86;62.91
43480;BME280;29067;35.492;-97.520;2023-05-20T12:20:33;98061.59;;;10.13;63.97
43480;BME280;29067;35.492;-97.520;2023-05-20T12:23:01;98070.27;;;10.83;63.54
43480;BME280;29067;35.492;-97.520;2023-05-20T12:25:29;98077.42;;;10.40;63.47
43480;BME280;29067;35.492;-97.520;2023-05-20T12:28:00;98080.12;;;10.96;60.43
43480;BME280;29067;35.492;-97.520;2023-05-20T12:30:28;98080.48;;;11.14;61.41
43480;BME280;29067;35.492;-97.520;2023-05-20T12:32:56;98078.34;;;12.48;59.41
43480;BME280;29067;35.492;-97.520;2023-05-20T12:35:35;98075.43;;;12.42;59.46
43480;BME280;29067;35.492;-97.520;2023-05-20T12:38:04;98080.01;;;12.34;59.01
43480;BME280;29067;35.492;-97.520;2023-05-20T12:40:36;98086.87;;;11.13;60.74
43480;BME280;29067;35.492;-97.520;2023-05-20T12:43:05;98088.73;;;11.92;59.70
43480;BME280;29067;35.492;-97.520;2023-05-20T12:45:33;98090.66;;;13.15;56.54
43480;BME280;29067;35.492;-97.520;2023-05-20T12:48:01;98090.82;;;12.21;58.26
43480;BME280;29067;35.492;-97.520;2023-05-20T12:50:29;98089.28;;;11.65;58.41
43480;BME280;29067;35.492;-97.520;2023-05-20T12:52:57;98100.05;;;11.08;58.76
43480;BME280;29067;35.492;-97.520;2023-05-20T12:55:26;98107.18;;;11.70;57.54
43480;BME280;29067;35.492;-97.520;2023-05-20T12:57:54;98115.88;;;12.72;56.58